Attleboro, Massachusetts
Current Conditions -  °F | °C
As of 10:55 AM on Saturday 25 Oct 2014 (Local Time) from KSFZ Reporting Station
Clear Clear  
Wind Chill: 57°   Ceiling: Unl
Heat Index: 57°   Visibility: 10mi
Dew Point: 37°   Wind: 6mph
Humidity: 48%   Direction: 270°W
Pressure: 29.74"   Gusts: NA
Location:  41.95°N, 71.28°W
Report Text: KSFZ 251455Z 27005KT 10SM CLR 14/03 A2974 RMK AO1 57010
Loading
Personal Weather Stations






























Interactive Weather Map
Tropical Storm Tracking
New forecast layout! Learn more

10-Day Weather Forecast

Advertisements
Track Severe Weather on mobile